createdAt,value
2018-02-20T00:02:35.512Z,26.20
2018-02-20T00:07:39.981Z,26.48
2018-02-20T00:12:44.415Z,26.30
2018-02-20T00:17:47.926Z,27.20
2018-02-20T00:22:51.220Z,25.80
2018-02-20T00:27:55.672Z,25.53
2018-02-20T00:33:00.113Z,28.00
2018-02-20T00:38:03.209Z,30.00
2018-02-20T00:43:07.657Z,29.00
2018-02-20T00:48:12.096Z,26.93
2018-02-20T00:53:16.453Z,29.47
2018-02-20T00:58:21.656Z,28.50
2018-02-20T01:03:26.097Z,27.03
2018-02-20T01:08:29.949Z,26.03
2018-02-20T01:13:33.540Z,26.90
2018-02-20T01:18:37.050Z,29.30
2018-02-20T01:23:40.795Z,29.03
2018-02-20T01:28:45.021Z,27.80
2018-02-20T01:33:48.125Z,29.50
2018-02-20T01:38:51.248Z,29.50
2018-02-20T01:43:55.105Z,28.37
2018-02-20T01:48:59.361Z,26.47
2018-02-20T01:54:02.468Z,29.00
2018-02-20T01:59:06.908Z,27.67
2018-02-20T02:04:10.384Z,29.17
2018-02-20T02:09:13.504Z,29.33
2018-02-20T02:14:17.371Z,28.77
2018-02-20T02:19:20.468Z,29.87
2018-02-20T02:24:24.279Z,30.23
2018-02-20T02:29:27.389Z,27.07
2018-02-20T02:34:30.481Z,29.07
2018-02-20T02:39:33.989Z,27.73
2018-02-20T02:44:37.489Z,27.83
2018-02-20T02:49:41.727Z,25.60
2018-02-20T02:54:46.341Z,23.97
2018-02-20T02:59:49.433Z,24.63
2018-02-20T03:04:52.535Z,29.93
2018-02-20T03:09:56.979Z,29.27
2018-02-20T03:15:00.472Z,28.43
2018-02-20T03:20:03.587Z,29.87
2018-02-20T03:25:07.465Z,29.37
2018-02-20T03:30:11.325Z,28.37
2018-02-20T03:35:14.413Z,30.13
2018-02-20T03:40:17.500Z,28.03
2018-02-20T03:45:21.352Z,29.47
2018-02-20T03:50:25.597Z,28.83
2018-02-20T03:55:30.044Z,28.63
2018-02-20T04:00:33.905Z,28.00
2018-02-20T04:05:37.396Z,29.60
2018-02-20T04:10:40.501Z,29.53
2018-02-20T04:15:44.950Z,29.47
2018-02-20T04:20:50.097Z,27.70
2018-02-20T04:25:53.973Z,23.77
2018-02-20T04:30:57.461Z,27.83
2018-02-20T04:36:00.556Z,27.73
2018-02-20T04:41:03.671Z,27.30
2018-02-20T04:46:07.561Z,24.60
2018-02-20T04:51:12.019Z,28.70
2018-02-20T04:56:16.463Z,25.87
2018-02-20T05:01:20.905Z,28.73
2018-02-20T05:06:24.793Z,28.17
2018-02-20T05:11:29.395Z,28.33
2018-02-20T05:16:34.532Z,29.40
2018-02-20T05:21:37.657Z,31.33
2018-02-20T05:26:41.520Z,29.67
2018-02-20T05:31:45.984Z,29.13
2018-02-20T05:36:50.213Z,29.47
2018-02-20T05:41:54.833Z,29.23
2018-02-20T05:46:58.695Z,28.93
2018-02-20T05:52:03.134Z,29.80
2018-02-20T05:57:06.226Z,30.73
2018-02-20T06:02:10.090Z,28.07
2018-02-20T06:07:13.420Z,30.17
2018-02-20T06:12:16.496Z,30.00
2018-02-20T06:17:19.660Z,30.23
2018-02-20T06:22:24.069Z,30.83
2018-02-20T06:27:28.507Z,30.87
2018-02-20T06:32:31.580Z,27.10
2018-02-20T06:37:34.688Z,30.83
2018-02-20T06:42:38.552Z,31.73
2018-02-20T06:47:42.996Z,33.37
2018-02-20T06:52:47.456Z,35.37
2018-02-20T06:57:50.944Z,34.83
2018-02-20T07:02:55.432Z,35.03
2018-02-20T07:07:58.927Z,37.13
2018-02-20T07:13:02.803Z,44.23
2018-02-20T07:18:05.915Z,41.23
2018-02-20T07:23:09.013Z,41.23
2018-02-20T07:28:12.088Z,35.67
2018-02-20T07:33:16.730Z,28.83
2018-02-20T07:38:21.721Z,32.80
2018-02-20T07:43:24.819Z,32.17
2018-02-20T07:48:27.904Z,31.42
2018-02-20T07:53:31.020Z,32.47
2018-02-20T07:58:34.495Z,29.47
2018-02-20T08:03:37.597Z,28.00
2018-02-20T08:08:41.090Z,26.00
2018-02-20T08:13:44.172Z,25.83
2018-02-20T08:18:47.313Z,26.73
2018-02-20T08:23:51.171Z,25.93
2018-02-20T08:28:54.269Z,27.43
2018-02-20T08:33:58.137Z,27.13
2018-02-20T08:39:01.442Z,27.80
2018-02-20T08:44:05.659Z,26.93
2018-02-20T08:49:09.529Z,26.50
2018-02-20T08:54:14.120Z,28.00
2018-02-20T08:59:18.556Z,27.77
2018-02-20T09:04:21.651Z,27.13
2018-02-20T09:09:26.097Z,27.63
2018-02-20T09:14:30.540Z,26.93
2018-02-20T09:19:34.020Z,26.87
2018-02-20T09:24:37.104Z,25.53
2018-02-20T09:29:40.192Z,26.40
2018-02-20T09:34:43.277Z,27.87
2018-02-20T09:39:47.721Z,27.57
2018-02-20T09:44:51.573Z,27.75
2018-02-20T09:49:55.999Z,26.77
2018-02-20T09:55:00.444Z,26.63
2018-02-20T10:00:04.668Z,26.63
2018-02-20T10:05:08.512Z,28.03
2018-02-20T10:10:11.601Z,29.57
2018-02-20T10:15:14.680Z,29.87
2018-02-20T10:20:19.285Z,27.97
2018-02-20T10:25:22.363Z,24.83
2018-02-20T10:30:25.457Z,25.90
2018-02-20T10:35:29.296Z,26.70
2018-02-20T10:40:32.388Z,26.70
2018-02-20T10:45:36.976Z,25.93
2018-02-20T10:50:41.576Z,24.90
2018-02-20T10:55:45.420Z,24.47
2018-02-20T11:00:49.863Z,23.67
2018-02-20T11:05:53.716Z,22.17
2018-02-20T11:10:57.555Z,22.87
2018-02-20T11:16:02.004Z,19.00
2018-02-20T11:21:06.224Z,20.42
2018-02-20T11:26:10.660Z,21.60
2018-02-20T11:31:14.890Z,20.80
2018-02-20T11:36:18.736Z,19.60
2018-02-20T11:41:21.833Z,20.03
2018-02-20T11:46:26.061Z,20.90
2018-02-20T11:51:30.295Z,22.63
2018-02-20T11:56:34.740Z,21.40
2018-02-20T12:01:39.200Z,22.97
2018-02-20T12:06:42.692Z,22.50
2018-02-20T12:11:46.174Z,20.67
2018-02-20T12:16:50.612Z,22.10
2018-02-20T12:21:55.068Z,21.63
2018-02-20T12:26:59.496Z,21.27
2018-02-20T12:32:03.715Z,23.60
2018-02-20T12:37:06.802Z,22.90
2018-02-20T12:42:11.392Z,23.40
2018-02-20T12:47:14.480Z,23.50
2018-02-20T12:52:18.727Z,24.10
2018-02-20T12:57:22.580Z,24.03
2018-02-20T13:02:27.829Z,24.90
2018-02-20T13:07:32.261Z,27.37
2018-02-20T13:12:35.749Z,25.90
2018-02-20T13:17:39.945Z,25.87
2018-02-20T13:22:44.372Z,25.80
2018-02-20T13:27:47.889Z,24.23
2018-02-20T13:32:52.104Z,25.67
2018-02-20T13:37:55.960Z,23.97
2018-02-20T13:43:00.392Z,24.20
2018-02-20T13:48:03.463Z,23.70
2018-02-20T13:53:06.544Z,22.57
2018-02-20T13:58:09.645Z,23.00
2018-02-20T14:03:13.497Z,23.67
2018-02-20T14:08:17.712Z,22.00
2018-02-20T14:13:22.407Z,21.98
2018-02-20T14:18:25.494Z,23.17
2018-02-20T14:23:30.093Z,22.37
2018-02-20T14:28:33.565Z,23.02
2018-02-20T14:33:38.009Z,24.87
2018-02-20T14:38:42.453Z,23.58
2018-02-20T14:43:46.885Z,24.50
2018-02-20T14:48:51.316Z,24.73
2018-02-20T14:53:54.793Z,25.43
2018-02-20T14:58:59.232Z,25.73
2018-02-20T15:04:02.700Z,25.30
2018-02-20T15:09:07.297Z,25.90
2018-02-20T15:14:11.735Z,24.83
2018-02-20T15:19:14.809Z,25.93
2018-02-20T15:24:19.245Z,25.87
2018-02-20T15:29:23.461Z,29.93
2018-02-20T15:34:27.896Z,30.07
2018-02-20T15:39:32.477Z,30.13
2018-02-20T15:44:36.340Z,28.97
2018-02-20T15:49:39.415Z,26.57
2018-02-20T15:54:42.913Z,29.90
2018-02-20T15:59:46.001Z,30.47
2018-02-20T16:04:49.478Z,31.70
2018-02-20T16:09:52.568Z,32.57
2018-02-20T16:14:56.426Z,33.87
2018-02-20T16:20:00.660Z,33.33
2018-02-20T16:25:04.505Z,32.77
2018-02-20T16:30:07.586Z,31.90
2018-02-20T16:35:11.796Z,35.43
2018-02-20T16:40:14.868Z,32.23
2018-02-20T16:45:19.307Z,33.90
2018-02-20T16:50:23.750Z,33.90
2018-02-20T16:55:27.616Z,34.10
2018-02-20T17:00:30.697Z,29.83
2018-02-20T17:05:35.138Z,36.33
2018-02-20T17:10:39.005Z,32.50
2018-02-20T17:15:42.884Z,28.57
2018-02-20T17:20:47.093Z,27.20
2018-02-20T17:25:50.196Z,25.87
2018-02-20T17:30:53.283Z,22.60
2018-02-20T17:35:58.371Z,23.37
2018-02-20T17:41:01.498Z,24.60
2018-02-20T17:46:04.613Z,24.73
2018-02-20T17:51:08.464Z,25.00
2018-02-20T17:56:13.394Z,24.67
2018-02-20T18:01:16.477Z,23.93
2018-02-20T18:06:21.320Z,23.98
2018-02-20T18:11:24.800Z,24.92
2018-02-20T18:16:29.403Z,25.87
2018-02-20T18:21:33.264Z,24.90
2018-02-20T18:26:37.862Z,26.37
2018-02-20T18:31:41.756Z,25.70
2018-02-20T18:36:45.784Z,25.50
2018-02-20T18:41:50.190Z,27.30
2018-02-20T18:46:55.025Z,26.43
2018-02-20T18:51:58.125Z,26.67
2018-02-20T18:57:02.142Z,26.37
2018-02-20T19:02:05.337Z,27.20
2018-02-20T19:07:08.432Z,27.43
2018-02-20T19:12:13.029Z,27.90
2018-02-20T19:17:17.332Z,28.23
2018-02-20T19:22:21.206Z,29.60
2018-02-20T19:27:25.088Z,29.03
2018-02-20T19:32:28.189Z,29.63
2018-02-20T19:37:31.308Z,29.83
2018-02-20T19:42:34.395Z,31.30
2018-02-20T19:47:37.516Z,30.37
2018-02-20T19:52:41.371Z,31.47
2018-02-20T19:57:44.477Z,29.87
2018-02-20T20:02:48.345Z,28.43
2018-02-20T20:07:53.184Z,29.60
2018-02-20T20:12:57.778Z,30.83
2018-02-20T20:18:01.590Z,29.97
2018-02-20T20:23:04.685Z,32.23
2018-02-20T20:28:07.788Z,32.88
2018-02-20T20:33:12.246Z,32.80
2018-02-20T20:38:15.337Z,30.77
2018-02-20T20:43:20.173Z,32.83
2018-02-20T20:48:24.761Z,34.20
2018-02-20T20:53:27.850Z,31.80
2018-02-20T20:58:38.885Z,33.83
2018-02-20T21:03:41.976Z,34.83
2018-02-20T21:08:45.337Z,31.37
2018-02-20T21:13:48.460Z,31.40
2018-02-20T21:18:51.556Z,33.67
2018-02-20T21:23:54.638Z,29.47
2018-02-20T21:28:59.251Z,32.63
2018-02-20T21:34:02.353Z,35.23
2018-02-20T21:39:06.956Z,35.63
2018-02-20T21:44:10.065Z,32.50
2018-02-20T21:49:13.180Z,34.30
2018-02-20T21:54:16.279Z,31.80
2018-02-20T21:59:20.099Z,34.77
2018-02-20T22:04:23.607Z,38.90
2018-02-20T22:09:26.702Z,34.40
2018-02-20T22:14:30.633Z,38.17
2018-02-20T22:19:35.120Z,35.42
2018-02-20T22:24:38.574Z,37.97
2018-02-20T22:29:42.960Z,36.20
2018-02-20T22:34:46.125Z,40.87
2018-02-20T22:39:49.260Z,43.13
2018-02-20T22:44:52.381Z,39.57
2018-02-20T22:49:55.480Z,42.03
2018-02-20T22:54:58.656Z,38.67
2018-02-20T23:00:02.806Z,37.67
2018-02-20T23:05:06.812Z,39.07
2018-02-20T23:10:09.973Z,36.83
2018-02-20T23:15:13.825Z,40.87
2018-02-20T23:20:17.784Z,39.37
2018-02-20T23:25:34.796Z,38.83
2018-02-20T23:30:37.896Z,38.03
2018-02-20T23:35:41.561Z,39.07
2018-02-20T23:40:45.792Z,34.88
2018-02-20T23:45:48.909Z,39.33
2018-02-20T23:56:32.921Z,37.63
